createdAt,value
2023-01-18T00:00:33.037Z,1.30
2023-01-18T00:03:00.984Z,1.28
2023-01-18T00:05:28.798Z,1.26
2023-01-18T00:07:58.179Z,1.25
2023-01-18T00:10:25.890Z,1.19
2023-01-18T00:12:53.665Z,1.16
2023-01-18T00:15:21.428Z,1.28
2023-01-18T00:17:51.531Z,1.24
2023-01-18T00:20:21.583Z,1.23
2023-01-18T00:22:49.566Z,1.32
2023-01-18T00:25:18.786Z,1.34
2023-01-18T00:27:49.529Z,1.29
2023-01-18T00:30:18.499Z,1.33
2023-01-18T00:32:46.380Z,1.25
2023-01-18T00:35:15.619Z,1.15
2023-01-18T00:37:45.250Z,1.14
2023-01-18T00:40:14.582Z,1.22
2023-01-18T00:43:01.305Z,1.25
2023-01-18T00:45:29.370Z,1.40
2023-01-18T00:47:58.340Z,1.38
2023-01-18T00:50:26.333Z,1.30
2023-01-18T00:52:57.762Z,1.24
2023-01-18T00:55:25.845Z,1.25
2023-01-18T00:57:54.982Z,1.21
2023-01-18T01:00:28.763Z,1.18
2023-01-18T01:02:58.045Z,1.19
2023-01-18T01:05:45.370Z,1.24
2023-01-18T01:08:17.806Z,1.25
2023-01-18T01:10:46.904Z,1.25
2023-01-18T01:13:34.981Z,1.18
2023-01-18T01:16:23.880Z,1.26
2023-01-18T01:19:09.644Z,1.32
2023-01-18T01:21:55.053Z,1.29
2023-01-18T01:24:40.583Z,1.22
2023-01-18T01:27:08.367Z,1.22
2023-01-18T01:29:37.550Z,1.24
2023-01-18T01:32:06.068Z,1.27
2023-01-18T01:34:34.244Z,1.28
2023-01-18T01:37:01.908Z,1.38
2023-01-18T01:39:29.677Z,1.52
2023-01-18T01:41:57.402Z,1.47
2023-01-18T01:44:50.136Z,1.43
2023-01-18T01:47:27.479Z,1.40
2023-01-18T01:50:01.721Z,1.31
2023-01-18T01:52:33.972Z,1.30
2023-01-18T01:55:06.679Z,1.36
2023-01-18T01:57:37.640Z,1.42
2023-01-18T02:03:47.832Z,1.42
2023-01-18T02:06:24.676Z,1.41
2023-01-18T02:08:52.407Z,1.42
2023-01-18T02:11:20.216Z,1.38
2023-01-18T02:13:47.973Z,1.33
2023-01-18T02:16:25.163Z,1.39
2023-01-18T02:19:01.401Z,1.39
2023-01-18T02:21:35.439Z,1.46
2023-01-18T02:24:44.521Z,1.55
2023-01-18T02:27:21.984Z,1.52
2023-01-18T02:30:02.043Z,1.50
2023-01-18T02:32:51.920Z,1.47
2023-01-18T02:35:27.404Z,1.52
2023-01-18T02:38:05.583Z,1.58
2023-01-18T02:40:40.509Z,1.57
2023-01-18T02:43:28.984Z,1.45
2023-01-18T02:46:18.489Z,1.52
2023-01-18T02:48:47.585Z,1.50
2023-01-18T02:51:15.454Z,1.58
2023-01-18T02:53:45.664Z,1.59
2023-01-18T02:56:17.188Z,1.54
2023-01-18T02:58:47.862Z,1.51
2023-01-18T03:01:26.612Z,1.52
2023-01-18T03:03:58.165Z,1.45
2023-01-18T03:06:28.499Z,1.47
2023-01-18T03:08:58.300Z,1.46
2023-01-18T03:11:35.255Z,1.48
2023-01-18T03:14:13.735Z,1.40
2023-01-18T03:16:58.054Z,1.43
2023-01-18T03:19:55.342Z,1.44
2023-01-18T03:22:45.148Z,1.54
2023-01-18T03:25:17.889Z,1.60
2023-01-18T03:28:06.310Z,1.66
2023-01-18T03:30:53.760Z,1.60
2023-01-18T03:33:44.849Z,1.59
2023-01-18T03:36:18.134Z,1.60
2023-01-18T03:38:48.548Z,1.59
2023-01-18T03:41:18.127Z,1.46
2023-01-18T03:43:48.215Z,1.42
2023-01-18T03:46:18.489Z,1.43
2023-01-18T03:48:47.747Z,1.49
2023-01-18T03:51:23.663Z,1.56
2023-01-18T03:53:59.327Z,1.62
2023-01-18T03:56:33.376Z,1.55
2023-01-18T03:59:04.265Z,1.50
2023-01-18T04:01:32.544Z,1.54
2023-01-18T04:04:01.849Z,1.49
2023-01-18T04:06:30.800Z,1.53
2023-01-18T04:08:58.456Z,1.54
2023-01-18T04:11:26.281Z,1.66
2023-01-18T04:13:54.638Z,1.68
2023-01-18T04:16:22.544Z,1.69
2023-01-18T04:18:50.345Z,1.68
2023-01-18T04:21:19.468Z,1.59
2023-01-18T04:23:47.118Z,1.53
2023-01-18T04:26:16.736Z,1.61
2023-01-18T04:28:44.714Z,1.56
2023-01-18T04:31:12.374Z,1.55
2023-01-18T04:33:40.063Z,1.55
2023-01-18T04:36:08.715Z,1.56
2023-01-18T04:38:37.909Z,1.54
2023-01-18T04:41:06.386Z,1.32
2023-01-18T04:43:34.138Z,1.30
2023-01-18T04:46:01.793Z,1.35
2023-01-18T04:48:29.973Z,1.39
2023-01-18T04:50:57.667Z,1.38
2023-01-18T04:53:25.420Z,1.34
2023-01-18T04:55:54.508Z,1.36
2023-01-18T04:58:22.234Z,1.32
2023-01-18T05:00:50.071Z,1.17
2023-01-18T05:03:17.922Z,1.30
2023-01-18T05:05:45.687Z,1.41
2023-01-18T05:08:13.498Z,1.29
2023-01-18T05:10:41.309Z,1.26
2023-01-18T05:13:10.405Z,1.31
2023-01-18T05:15:38.115Z,1.37
2023-01-18T05:18:07.149Z,1.07
2023-01-18T05:20:34.949Z,1.28
2023-01-18T05:23:11.172Z,1.26
2023-01-18T05:25:39.772Z,1.34
2023-01-18T05:28:08.790Z,1.36
2023-01-18T05:30:39.922Z,1.08
2023-01-18T05:33:07.679Z,1.11
2023-01-18T05:35:35.459Z,1.23
2023-01-18T05:38:03.300Z,1.33
2023-01-18T05:40:31.332Z,1.34
2023-01-18T05:42:59.332Z,1.48
2023-01-18T05:45:27.293Z,1.47
2023-01-18T05:47:56.743Z,1.46
2023-01-18T05:50:24.492Z,1.46
2023-01-18T05:52:52.384Z,1.58
2023-01-18T05:55:20.421Z,1.51
2023-01-18T05:57:48.721Z,1.59
2023-01-18T06:00:16.865Z,1.78
2023-01-18T06:02:44.615Z,1.82
2023-01-18T06:05:13.728Z,1.82
2023-01-18T06:07:42.242Z,1.76
2023-01-18T06:10:11.523Z,1.74
2023-01-18T06:12:39.474Z,1.74
2023-01-18T06:15:09.102Z,1.72
2023-01-18T06:17:37.183Z,1.57
2023-01-18T06:20:06.125Z,1.63
2023-01-18T06:22:35.128Z,1.49
2023-01-18T06:25:02.842Z,1.57
2023-01-18T06:27:30.806Z,1.55
2023-01-18T06:29:58.561Z,1.60
2023-01-18T06:32:26.496Z,1.66
2023-01-18T06:34:54.202Z,1.65
2023-01-18T06:37:21.959Z,1.67
2023-01-18T06:39:51.075Z,1.68
2023-01-18T06:42:18.939Z,1.75
2023-01-18T06:44:46.743Z,1.85
2023-01-18T06:47:15.618Z,1.94
2023-01-18T06:49:44.427Z,1.81
2023-01-18T06:52:12.128Z,1.92
2023-01-18T06:54:39.812Z,1.99
2023-01-18T06:57:09.011Z,1.98
2023-01-18T06:59:36.797Z,1.92
2023-01-18T07:02:04.937Z,1.94
2023-01-18T07:04:35.530Z,1.97
2023-01-18T07:07:03.453Z,1.87
2023-01-18T07:09:31.194Z,1.74
2023-01-18T07:11:58.977Z,1.65
2023-01-18T07:14:28.877Z,1.57
2023-01-18T07:16:56.795Z,1.59
2023-01-18T07:19:24.594Z,1.58
2023-01-18T07:21:53.747Z,1.49
2023-01-18T07:24:21.538Z,1.45
2023-01-18T07:26:49.747Z,1.52
2023-01-18T07:29:17.814Z,1.58
2023-01-18T07:31:47.023Z,1.49
2023-01-18T07:34:15.824Z,1.45
2023-01-18T07:36:43.658Z,1.36
2023-01-18T07:39:12.000Z,1.33
2023-01-18T07:41:40.223Z,1.30
2023-01-18T07:44:09.742Z,1.28
2023-01-18T07:46:37.592Z,1.32
2023-01-18T07:49:06.913Z,1.42
2023-01-18T07:51:35.029Z,1.46
2023-01-18T07:54:02.902Z,1.47
2023-01-18T07:56:30.953Z,1.39
2023-01-18T07:58:58.747Z,1.36
2023-01-18T08:01:26.588Z,1.37
2023-01-18T08:03:54.760Z,1.36
2023-01-18T08:06:26.201Z,1.31
2023-01-18T08:08:56.064Z,1.30
2023-01-18T08:11:24.220Z,1.20
2023-01-18T08:13:52.874Z,1.16
2023-01-18T08:16:20.649Z,1.17
2023-01-18T08:18:50.097Z,1.08
2023-01-18T08:21:18.125Z,1.12
2023-01-18T08:23:47.198Z,1.13
2023-01-18T08:26:15.374Z,1.08
2023-01-18T08:28:44.718Z,1.10
2023-01-18T08:31:14.621Z,1.12
2023-01-18T08:33:45.481Z,1.15
2023-01-18T08:36:15.054Z,1.11
2023-01-18T08:38:43.207Z,1.14
2023-01-18T08:41:12.260Z,1.12
2023-01-18T08:43:40.045Z,1.11
2023-01-18T08:46:07.756Z,1.23
2023-01-18T08:48:35.649Z,1.19
2023-01-18T08:51:04.372Z,1.26
2023-01-18T08:53:32.894Z,1.20
2023-01-18T08:56:00.601Z,1.23
2023-01-18T08:58:32.559Z,1.19
2023-01-18T09:01:00.358Z,1.19
2023-01-18T09:03:28.122Z,1.18
2023-01-18T09:05:55.832Z,1.20
2023-01-18T09:08:23.524Z,1.22
2023-01-18T09:10:51.202Z,1.24
2023-01-18T09:13:18.948Z,1.28
2023-01-18T09:15:48.020Z,1.31
2023-01-18T09:18:15.717Z,1.39
2023-01-18T09:20:43.606Z,1.48
2023-01-18T09:23:11.766Z,1.49
2023-01-18T09:25:40.972Z,1.47
2023-01-18T09:28:08.702Z,1.46
2023-01-18T09:30:36.910Z,1.54
2023-01-18T09:33:06.333Z,1.68
2023-01-18T09:35:34.310Z,1.60
2023-01-18T09:38:02.007Z,1.63
2023-01-18T09:40:43.440Z,1.68
2023-01-18T09:43:18.181Z,1.66
2023-01-18T09:45:48.261Z,1.66
2023-01-18T09:48:29.320Z,1.76
2023-01-18T09:51:02.224Z,1.78
2023-01-18T09:53:56.101Z,1.77
2023-01-18T09:56:28.387Z,1.76
2023-01-18T09:59:08.126Z,1.56
2023-01-18T10:01:37.287Z,1.58
2023-01-18T10:04:16.477Z,1.61
2023-01-18T10:06:49.100Z,1.77
2023-01-18T10:09:21.419Z,1.67
2023-01-18T10:11:55.826Z,1.73
2023-01-18T10:14:33.163Z,1.68
2023-01-18T10:17:04.123Z,1.62
2023-01-18T10:19:34.245Z,1.72
2023-01-18T10:22:07.468Z,1.72
2023-01-18T10:24:47.065Z,1.50
2023-01-18T10:27:44.590Z,1.35
2023-01-18T10:30:29.244Z,1.50
2023-01-18T10:33:00.216Z,1.55
2023-01-18T10:35:33.091Z,1.56
2023-01-18T10:38:05.831Z,1.58
2023-01-18T10:40:35.407Z,1.55
2023-01-18T10:43:04.445Z,1.38
2023-01-18T10:45:35.949Z,1.31
2023-01-18T10:48:23.185Z,1.21
2023-01-18T10:50:54.094Z,1.24
2023-01-18T10:53:28.088Z,1.12
2023-01-18T10:55:59.348Z,1.10
2023-01-18T10:58:33.923Z,1.11
2023-01-18T11:01:03.563Z,1.06
2023-01-18T11:03:38.207Z,1.03
2023-01-18T11:06:08.989Z,1.07
2023-01-18T11:08:37.484Z,1.25
2023-01-18T11:11:07.741Z,1.30
2023-01-18T11:13:43.717Z,1.32
2023-01-18T11:16:18.061Z,1.32
2023-01-18T11:19:01.545Z,1.19
2023-01-18T11:21:46.686Z,1.17
2023-01-18T11:24:17.295Z,1.24
2023-01-18T11:26:55.361Z,1.20
2023-01-18T11:29:28.245Z,1.26
2023-01-18T11:31:56.989Z,1.22
2023-01-18T11:34:29.676Z,1.22
2023-01-18T11:37:00.146Z,1.23
2023-01-18T11:39:33.405Z,1.20
2023-01-18T11:42:26.867Z,1.23
2023-01-18T11:45:05.439Z,1.34
2023-01-18T11:47:43.597Z,1.38
2023-01-18T11:50:28.261Z,1.42
2023-01-18T11:53:04.430Z,1.46
2023-01-18T11:55:36.228Z,1.45
2023-01-18T11:58:05.240Z,1.35
2023-01-18T12:00:43.921Z,1.25
2023-01-18T12:03:35.367Z,1.30
2023-01-18T12:06:07.097Z,1.40
2023-01-18T12:08:48.026Z,1.48
2023-01-18T12:11:31.175Z,1.47
2023-01-18T12:14:03.465Z,1.54
2023-01-18T12:16:47.353Z,1.39
2023-01-18T12:19:37.266Z,1.31
2023-01-18T12:22:24.327Z,1.35
2023-01-18T12:25:06.603Z,1.38
2023-01-18T12:27:45.246Z,1.34
2023-01-18T12:30:31.754Z,1.39
2023-01-18T12:33:14.331Z,1.28
2023-01-18T12:36:15.875Z,1.28
2023-01-18T12:38:51.508Z,1.24
2023-01-18T12:41:39.279Z,1.25
2023-01-18T12:44:22.606Z,1.20
2023-01-18T12:47:04.715Z,1.30
2023-01-18T12:49:37.994Z,1.18
2023-01-18T12:52:18.466Z,1.13
2023-01-18T12:54:50.004Z,1.10
2023-01-18T12:57:20.371Z,0.98
2023-01-18T12:59:53.755Z,1.01
2023-01-18T13:02:28.710Z,1.10
2023-01-18T13:05:00.622Z,1.12
2023-01-18T13:07:34.753Z,1.20
2023-01-18T13:10:04.168Z,1.19
2023-01-18T13:12:33.688Z,1.18
2023-01-18T13:15:08.707Z,1.19
2023-01-18T13:17:42.470Z,1.30
2023-01-18T13:20:16.916Z,1.28
2023-01-18T13:22:53.540Z,1.26
2023-01-18T13:25:39.449Z,1.27
2023-01-18T13:28:19.111Z,1.31
2023-01-18T13:30:53.248Z,1.35
2023-01-18T13:33:24.003Z,1.35
2023-01-18T13:35:55.838Z,1.42
2023-01-18T13:38:40.239Z,1.32
2023-01-18T13:41:11.488Z,1.30
2023-01-18T13:44:06.233Z,1.27
2023-01-18T13:46:39.830Z,1.22
2023-01-18T13:49:37.986Z,1.12
2023-01-18T13:52:30.894Z,1.18
2023-01-18T13:55:05.409Z,1.25
2023-01-18T13:57:35.261Z,1.29
2023-01-18T14:00:06.143Z,1.35
2023-01-18T14:02:41.995Z,1.42
2023-01-18T14:05:25.134Z,1.40
2023-01-18T14:07:56.814Z,1.44
2023-01-18T14:10:30.277Z,1.48
2023-01-18T14:12:59.778Z,1.39
2023-01-18T14:15:38.689Z,1.38
2023-01-18T14:18:17.855Z,1.29
2023-01-18T14:21:12.501Z,1.37
2023-01-18T14:24:06.350Z,1.40
2023-01-18T14:26:37.226Z,1.35
2023-01-18T14:29:08.228Z,1.38
2023-01-18T14:31:41.675Z,1.45
2023-01-18T14:34:26.896Z,1.47
2023-01-18T14:36:55.108Z,1.44
2023-01-18T14:39:23.168Z,1.47
2023-01-18T14:41:55.088Z,1.54
2023-01-18T14:44:25.161Z,1.42
2023-01-18T14:46:57.349Z,1.38
2023-01-18T14:49:27.895Z,1.38
2023-01-18T14:51:55.759Z,1.34
2023-01-18T14:54:25.957Z,1.26
2023-01-18T14:57:01.333Z,1.26
2023-01-18T14:59:31.097Z,1.25
2023-01-18T15:02:02.025Z,1.25
2023-01-18T15:04:31.326Z,1.16
2023-01-18T15:07:03.664Z,1.17
2023-01-18T15:09:33.739Z,1.19
2023-01-18T15:12:04.157Z,1.17
2023-01-18T15:14:34.630Z,1.11
2023-01-18T15:17:09.542Z,1.10
2023-01-18T15:19:41.534Z,1.06
2023-01-18T15:22:13.905Z,1.03
2023-01-18T15:24:43.790Z,0.96
2023-01-18T15:27:14.036Z,0.93
2023-01-18T15:29:46.946Z,0.95
2023-01-18T15:32:20.437Z,0.99
2023-01-18T15:34:50.648Z,1.04
2023-01-18T15:37:23.298Z,1.01
2023-01-18T15:39:56.687Z,0.98
2023-01-18T15:42:27.721Z,0.95
2023-01-18T15:44:56.736Z,0.94
2023-01-18T15:47:28.696Z,1.01
2023-01-18T15:49:58.939Z,1.01
2023-01-18T15:52:43.949Z,1.05
2023-01-18T15:55:22.474Z,1.10
2023-01-18T15:57:58.955Z,1.05
2023-01-18T16:00:33.227Z,1.07
2023-01-18T16:03:04.462Z,1.03
2023-01-18T16:05:32.888Z,1.04
2023-01-18T16:08:19.061Z,1.09
2023-01-18T16:10:52.634Z,1.07
2023-01-18T16:13:39.150Z,1.02
2023-01-18T16:16:18.231Z,1.02
2023-01-18T16:18:49.632Z,1.00
2023-01-18T16:21:25.862Z,1.01
2023-01-18T16:23:54.508Z,0.94
2023-01-18T16:26:27.858Z,0.88
2023-01-18T16:29:05.900Z,0.92
2023-01-18T16:31:34.730Z,0.90
2023-01-18T16:34:06.096Z,0.95
2023-01-18T16:36:41.773Z,0.97
2023-01-18T16:39:09.959Z,0.96
2023-01-18T16:41:37.772Z,1.00
2023-01-18T16:44:05.777Z,0.98
2023-01-18T16:46:35.670Z,0.99
2023-01-18T16:49:04.689Z,1.02
2023-01-18T16:51:32.395Z,1.01
2023-01-18T16:54:00.156Z,0.91
2023-01-18T16:56:27.918Z,0.99
2023-01-18T16:58:55.734Z,0.97
2023-01-18T17:01:23.573Z,0.95
2023-01-18T17:03:51.776Z,1.00
2023-01-18T17:06:22.588Z,0.99
2023-01-18T17:08:50.531Z,0.97
2023-01-18T17:11:18.519Z,0.99
2023-01-18T17:13:47.665Z,1.02
2023-01-18T17:16:18.531Z,1.00
2023-01-18T17:18:47.974Z,1.00
2023-01-18T17:21:15.647Z,0.93
2023-01-18T17:23:45.334Z,0.89
2023-01-18T17:26:15.304Z,0.93
2023-01-18T17:28:43.114Z,0.96
2023-01-18T17:31:11.553Z,0.88
2023-01-18T17:33:40.360Z,0.90
2023-01-18T17:36:09.447Z,0.92
2023-01-18T17:38:37.405Z,0.85
2023-01-18T17:41:09.498Z,0.89
2023-01-18T17:43:39.008Z,0.91
2023-01-18T17:46:07.771Z,0.91
2023-01-18T17:48:35.706Z,0.94
2023-01-18T17:51:07.260Z,0.88
2023-01-18T17:53:35.349Z,0.91
2023-01-18T17:56:08.565Z,0.91
2023-01-18T17:58:36.353Z,0.85
2023-01-18T18:01:10.316Z,0.92
2023-01-18T18:03:38.340Z,0.90
2023-01-18T18:06:06.745Z,0.88
2023-01-18T18:08:35.352Z,0.84
2023-01-18T18:11:03.301Z,0.87
2023-01-18T18:13:32.457Z,0.85
2023-01-18T18:16:00.377Z,0.90
2023-01-18T18:18:28.143Z,0.79
2023-01-18T18:20:58.521Z,0.82
2023-01-18T18:23:27.009Z,0.80
2023-01-18T18:25:55.449Z,0.87
2023-01-18T18:28:24.399Z,0.83
2023-01-18T18:30:53.790Z,0.91
2023-01-18T18:33:21.986Z,0.96
2023-01-18T18:35:51.083Z,0.88
2023-01-18T18:38:22.571Z,0.85
2023-01-18T18:40:50.364Z,0.96
2023-01-18T18:43:18.206Z,0.92
2023-01-18T18:45:46.710Z,0.93
2023-01-18T18:48:15.873Z,0.93
2023-01-18T18:50:43.625Z,1.00
2023-01-18T18:53:11.256Z,0.94
2023-01-18T18:55:38.942Z,0.94
2023-01-18T18:58:06.739Z,0.87
2023-01-18T19:00:34.393Z,0.83
2023-01-18T19:03:04.170Z,0.92
2023-01-18T19:05:35.145Z,0.97
2023-01-18T19:08:03.972Z,0.85
2023-01-18T19:10:31.756Z,0.92
2023-01-18T19:13:00.122Z,0.93
2023-01-18T19:15:28.446Z,1.00
2023-01-18T19:17:57.976Z,1.04
2023-01-18T19:20:25.811Z,1.09
2023-01-18T19:22:55.047Z,1.08
2023-01-18T19:25:22.803Z,1.01
2023-01-18T19:27:50.573Z,0.99
2023-01-18T19:30:20.137Z,0.94
2023-01-18T19:32:51.727Z,0.94
2023-01-18T19:35:20.437Z,1.03
2023-01-18T19:37:48.769Z,0.99
2023-01-18T19:40:18.626Z,1.00
2023-01-18T19:42:54.244Z,0.87
2023-01-18T19:45:27.868Z,0.88
2023-01-18T19:47:57.572Z,1.01
2023-01-18T19:50:25.914Z,0.95
2023-01-18T19:52:53.785Z,0.99
2023-01-18T19:55:23.030Z,0.98
2023-01-18T19:57:52.277Z,1.01
2023-01-18T20:00:20.968Z,0.95
2023-01-18T20:02:48.820Z,0.99
2023-01-18T20:05:16.654Z,0.95
2023-01-18T20:07:44.375Z,0.90
2023-01-18T20:10:12.385Z,0.88
2023-01-18T20:12:41.433Z,0.84
2023-01-18T20:15:09.625Z,0.79
2023-01-18T20:17:37.297Z,0.82
2023-01-18T20:20:05.764Z,0.80
2023-01-18T20:22:33.444Z,0.92
2023-01-18T20:25:01.189Z,0.91
2023-01-18T20:27:29.093Z,0.88
2023-01-18T20:29:59.081Z,0.90
2023-01-18T20:32:26.848Z,0.99
2023-01-18T20:34:54.494Z,1.02
2023-01-18T20:37:22.314Z,0.95
2023-01-18T20:39:50.753Z,0.90
2023-01-18T20:42:19.420Z,0.90
2023-01-18T20:44:50.250Z,0.88
2023-01-18T20:47:19.400Z,0.85
2023-01-18T20:49:47.083Z,0.87
2023-01-18T20:52:14.955Z,0.84
2023-01-18T20:54:42.601Z,0.84
2023-01-18T20:57:10.504Z,0.82
2023-01-18T20:59:38.304Z,0.80
2023-01-18T21:02:06.372Z,0.80
2023-01-18T21:04:35.686Z,0.76
2023-01-18T21:07:03.342Z,0.81
2023-01-18T21:09:31.032Z,0.79
2023-01-18T21:11:59.536Z,0.77
2023-01-18T21:14:27.303Z,0.86
2023-01-18T21:16:55.035Z,0.82
2023-01-18T21:19:22.941Z,0.80
2023-01-18T21:21:51.950Z,0.73
2023-01-18T21:24:19.699Z,0.70
2023-01-18T21:26:47.491Z,0.66
2023-01-18T21:29:15.220Z,0.59
2023-01-18T21:31:43.016Z,0.62
2023-01-18T21:34:10.928Z,0.64
2023-01-18T21:36:38.668Z,0.64
2023-01-18T21:39:07.909Z,0.64
2023-01-18T21:41:53.146Z,0.70
2023-01-18T21:44:38.344Z,0.67
2023-01-18T21:47:06.114Z,0.69
2023-01-18T21:50:15.975Z,0.66
2023-01-18T21:52:56.846Z,0.69
2023-01-18T21:55:26.009Z,0.67
2023-01-18T21:58:07.594Z,0.59
2023-01-18T22:00:38.228Z,0.54
2023-01-18T22:03:06.741Z,0.55
2023-01-18T22:05:34.795Z,0.52
2023-01-18T22:08:02.759Z,0.50
2023-01-18T22:10:31.913Z,0.44
2023-01-18T22:12:59.671Z,0.42
2023-01-18T22:15:27.393Z,0.46
2023-01-18T22:17:55.089Z,0.43
2023-01-18T22:20:22.800Z,0.38
2023-01-18T22:22:50.504Z,0.39
2023-01-18T22:25:18.169Z,0.31
2023-01-18T22:27:47.418Z,0.28
2023-01-18T22:30:15.188Z,0.25
2023-01-18T22:32:42.910Z,0.15
2023-01-18T22:35:10.856Z,0.19
2023-01-18T22:37:38.676Z,0.17
2023-01-18T22:40:07.921Z,0.16
2023-01-18T22:42:35.907Z,0.14
2023-01-18T22:45:05.986Z,0.02
2023-01-18T22:47:33.693Z,0.04
2023-01-18T22:50:01.443Z,-0.08
2023-01-18T22:52:29.300Z,-0.08
2023-01-18T22:54:57.123Z,-0.11
2023-01-18T22:57:24.994Z,-0.14
2023-01-18T22:59:53.044Z,-0.18
2023-01-18T23:02:22.209Z,-0.21
2023-01-18T23:04:49.960Z,-0.21
2023-01-18T23:07:17.700Z,-0.23
2023-01-18T23:09:45.482Z,-0.27
2023-01-18T23:12:13.177Z,-0.35
2023-01-18T23:14:58.725Z,-0.33
2023-01-18T23:17:40.108Z,-0.40
2023-01-18T23:20:10.308Z,-0.53
2023-01-18T23:22:38.074Z,-0.46
2023-01-18T23:25:06.768Z,-0.42
2023-01-18T23:27:34.518Z,-0.33
2023-01-18T23:30:02.526Z,-0.38
2023-01-18T23:32:31.724Z,-0.44
2023-01-18T23:35:00.211Z,-0.48
2023-01-18T23:37:28.374Z,-0.52
2023-01-18T23:40:13.612Z,-0.51
2023-01-18T23:42:58.916Z,-0.49
2023-01-18T23:45:44.401Z,-0.50
2023-01-18T23:48:33.132Z,-0.59
2023-01-18T23:51:18.458Z,-0.64
2023-01-18T23:54:04.026Z,-0.73
2023-01-18T23:56:32.012Z,-0.67
2023-01-18T23:58:59.778Z,-0.68
